Ana Sayfa
METAR-TAF:

METAR-TAF

Havaalanları :

Toliara, Madagaskar

Enlem: 23-23S, Boylam: 043-44E, yükseklik: 8 m

METAR: eksik

Saat: 22:24 (19:24 UTC)

Tahmin

Rapor saat 17:00 UTC de 2 saat ve 24 dakika önce yapıldı.
Ayın 10'si saat 18 UTC'den ayın 11'si saat 18 UTC'ye kadar geçerli Tahmin
Rüzgar güneydoğudan 8 kt
Görüş mesafesi 10 km veya daha fazla
2000 ft yükseklikte az bulutlu
4000 ft yükseklikte parçalı bulutlu
Dönüşüyor
ayın 11'si saat 06 UTC'den ayın 11'si saat 09 UTC'ye kadar
Rüzgar batı/kuzeybatıdan 10 kt ve 20 kt'a kadar ani rüzgarlar

TAF: FMST 101700Z 1018/1118 14008KT 9999 FEW020 SCT040 BECMG 1106/1109 30010G20KT

4.000'den fazla havaalanı için hava durumu gözlemleri ve tahminleri (METAR ve TAF raporları).

Kullanılabilir istasyonlar harita üzerinde sarı ve kırmızı noktalarla gösterilir.

İstasyonun adını görmek için fareyi noktanın üzerinde gezdirin.

Sonrasında hava gözlem ve tahminlerini görmek için tıklayın.

Haritayı değiştirmek için: yaklaştırmak için siyah artı işaretli yeşil düğmeye ve uzaklaştırmak için de eksi işaretli düğmeye hızla tıklayın; bitişik haritalar için yeşil okları kullanın.


METAR-TAF: